Time;durP1;ratioP1;P1;durP2;ratioP2;P2;SDS_P1;SDS_P2;PMS_P1;PMS_P2;Temp;Humidity;BMP_temperature;BMP_pressure;BME280_temperature;BME280_humidity;BME280_pressure;Samples;Min_cycle;Max_cycle;Signal;HPM_P1;HPM_P2
2021/01/28 00:01:42;;;;;;;5.63;4.72;;;1.70;99.90;;;;;;5070304;28;20029;-75
2021/01/28 00:04:08;;;;;;;6.82;5.13;;;1.70;99.90;;;;;;5052598;28;20115;-74
2021/01/28 00:06:34;;;;;;;5.50;4.28;;;1.80;99.90;;;;;;5053070;28;20040;-74
2021/01/28 00:08:59;;;;;;;7.45;4.40;;;1.80;99.90;;;;;;5052035;28;20029;-74
2021/01/28 00:11:25;;;;;;;11.20;4.35;;;1.80;99.90;;;;;;5052314;28;20397;-75
2021/01/28 00:13:51;;;;;;;5.03;4.45;;;1.90;99.90;;;;;;5069726;28;20467;-75
2021/01/28 00:16:17;;;;;;;5.32;4.05;;;1.90;99.90;;;;;;5069871;28;20052;-74
2021/01/28 00:18:42;;;;;;;4.55;3.72;;;1.90;99.90;;;;;;5069843;28;20137;-75
2021/01/28 00:21:08;;;;;;;4.25;3.85;;;1.90;99.90;;;;;;5052025;28;20025;-74
2021/01/28 00:23:34;;;;;;;4.97;3.78;;;1.90;99.90;;;;;;5035347;28;20054;-73
2021/01/28 00:25:59;;;;;;;4.43;3.90;;;1.80;99.90;;;;;;5035373;28;20032;-75
2021/01/28 00:28:25;;;;;;;5.70;4.10;;;1.80;99.90;;;;;;5069518;28;20115;-75
2021/01/28 00:30:52;;;;;;;4.90;4.32;;;1.80;99.90;;;;;;5053502;28;20024;-75
2021/01/28 00:33:22;;;;;;;4.97;3.92;;;1.80;99.90;;;;;;5039006;28;20382;-76
2021/01/28 00:35:50;;;;;;;5.07;3.95;;;1.70;99.90;;;;;;5055184;28;20024;-74
2021/01/28 00:38:37;;;;;;;4.97;4.18;;;1.80;99.90;;;;;;5055370;28;20028;-75
2021/01/28 00:41:05;;;;;;;5.97;4.13;;;1.80;99.90;;;;;;5073244;28;20047;-76
2021/01/28 00:43:30;;;;;;;7.13;4.35;;;1.90;99.90;;;;;;5055428;28;20024;-75
2021/01/28 00:45:58;;;;;;;4.05;3.58;;;1.90;99.90;;;;;;5072822;28;20021;-75
2021/01/28 00:48:26;;;;;;;5.32;3.67;;;1.90;99.90;;;;;;5055294;28;20549;-75
2021/01/28 00:50:53;;;;;;;4.45;4.05;;;1.90;99.90;;;;;;5055274;28;20020;-74
2021/01/28 00:53:19;;;;;;;4.97;4.43;;;1.80;99.90;;;;;;5073048;28;20036;-74
2021/01/28 00:55:45;;;;;;;4.32;3.88;;;1.80;99.90;;;;;;5054753;28;20476;-75
2021/01/28 00:58:13;;;;;;;5.70;4.85;;;1.80;99.90;;;;;;5073384;28;20028;-75
2021/01/28 01:00:42;;;;;;;5.50;4.00;;;1.80;99.90;;;;;;5072933;28;20047;-75
2021/01/28 01:05:38;;;;;;;5.68;4.65;;;1.80;99.90;;;;;;5053381;28;20096;-74
2021/01/28 01:08:07;;;;;;;4.80;3.90;;;1.80;99.90;;;;;;5053220;28;20357;-74
2021/01/28 01:10:39;;;;;;;5.63;3.78;;;1.80;99.90;;;;;;5053178;28;20025;-74
2021/01/28 01:13:07;;;;;;;8.18;3.83;;;1.80;99.90;;;;;;5035076;28;20111;-73
2021/01/28 01:15:33;;;;;;;5.45;3.92;;;1.80;99.90;;;;;;5052952;28;20021;-74
2021/01/28 01:17:59;;;;;;;4.40;3.75;;;1.70;99.90;;;;;;5053378;28;20427;-74
2021/01/28 01:20:26;;;;;;;5.35;4.55;;;1.70;99.90;;;;;;5034735;28;20110;-74
2021/01/28 01:22:51;;;;;;;4.43;3.88;;;1.80;99.90;;;;;;5052963;28;20021;-73
2021/01/28 01:25:19;;;;;;;5.03;4.47;;;1.80;99.90;;;;;;5034792;28;20075;-74
2021/01/28 01:27:45;;;;;;;5.38;3.67;;;1.70;99.90;;;;;;5052157;28;20031;-74
2021/01/28 01:30:13;;;;;;;6.80;3.75;;;1.80;99.90;;;;;;5052859;28;20036;-74
2021/01/28 01:32:39;;;;;;;4.38;3.97;;;1.90;99.90;;;;;;5052712;28;20033;-74
2021/01/28 01:35:06;;;;;;;4.70;3.45;;;2.00;99.90;;;;;;5052537;28;20031;-74
2021/01/28 01:37:32;;;;;;;4.93;4.22;;;2.00;99.90;;;;;;5052337;28;20047;-74
2021/01/28 01:39:58;;;;;;;3.47;3.05;;;2.10;99.90;;;;;;5052659;28;20025;-74
2021/01/28 01:42:23;;;;;;;3.63;3.33;;;2.20;99.90;;;;;;5051790;28;20067;-74
2021/01/28 01:44:49;;;;;;;3.10;2.80;;;2.10;99.90;;;;;;5052259;28;20063;-74
2021/01/28 01:47:27;;;;;;;3.10;2.80;;;2.10;99.90;;;;;;5034446;28;20028;-74
2021/01/28 01:49:53;;;;;;;4.15;3.00;;;2.10;99.90;;;;;;5052417;28;20021;-74
2021/01/28 01:52:20;;;;;;;5.20;2.55;;;2.10;99.90;;;;;;5052226;28;20421;-74
2021/01/28 01:54:47;;;;;;;3.20;2.85;;;2.10;99.90;;;;;;5052398;28;20028;-73
2021/01/28 01:57:23;;;;;;;2.90;2.60;;;2.10;99.90;;;;;;5034701;28;20383;-74
2021/01/28 01:59:56;;;;;;;2.97;2.67;;;2.10;99.90;;;;;;5052693;28;20070;-74
2021/01/28 02:02:23;;;;;;;2.30;2.05;;;2.30;99.90;;;;;;5051125;28;20021;-74
2021/01/28 02:04:57;;;;;;;2.08;1.98;;;2.30;99.90;;;;;;5052047;28;20029;-74
2021/01/28 02:07:26;;;;;;;2.42;2.17;;;2.30;99.90;;;;;;5052217;28;20028;-73
2021/01/28 02:09:52;;;;;;;2.20;2.00;;;2.40;99.90;;;;;;5034280;28;20503;-74
2021/01/28 02:12:18;;;;;;;2.35;1.90;;;2.50;99.90;;;;;;5051842;28;20021;-74
2021/01/28 02:14:46;;;;;;;3.53;2.63;;;2.40;99.90;;;;;;5051837;28;20419;-74
2021/01/28 02:17:18;;;;;;;3.28;2.58;;;2.30;99.90;;;;;;5050752;28;20467;-74
2021/01/28 02:19:52;;;;;;;2.67;2.25;;;2.20;99.90;;;;;;5033917;28;20024;-74
2021/01/28 02:22:45;;;;;;;2.13;1.92;;;2.20;99.90;;;;;;5051801;28;20096;-74
2021/01/28 02:25:23;;;;;;;4.60;2.20;;;2.30;99.90;;;;;;5038062;28;20469;-73
2021/01/28 02:27:50;;;;;;;3.17;2.15;;;2.30;99.90;;;;;;5064265;28;20063;-74
2021/01/28 02:30:25;;;;;;;2.60;2.28;;;2.30;99.90;;;;;;5071498;28;20056;-74
2021/01/28 02:32:52;;;;;;;2.05;1.85;;;2.30;99.90;;;;;;5071325;28;20024;-74
2021/01/28 02:35:23;;;;;;;2.35;2.15;;;2.30;99.90;;;;;;5071376;28;20049;-74
2021/01/28 02:37:50;;;;;;;2.42;2.22;;;2.30;99.90;;;;;;5053364;28;20525;-74
2021/01/28 02:40:19;;;;;;;2.42;2.22;;;2.30;99.90;;;;;;5053232;28;20059;-74
2021/01/28 02:42:45;;;;;;;2.40;2.13;;;2.20;99.90;;;;;;5071260;28;20036;-74
2021/01/28 02:45:20;;;;;;;3.58;2.45;;;2.20;99.90;;;;;;5071097;28;20025;-74
2021/01/28 02:47:59;;;;;;;2.33;2.13;;;2.20;99.90;;;;;;5071216;28;20094;-74
2021/01/28 02:50:25;;;;;;;2.65;2.35;;;2.20;99.90;;;;;;5053296;28;20031;-74
2021/01/28 02:52:57;;;;;;;2.58;2.38;;;2.20;99.90;;;;;;5070370;28;20025;-74
2021/01/28 02:55:25;;;;;;;2.83;2.53;;;2.30;99.90;;;;;;5071103;28;20142;-74
2021/01/28 02:57:51;;;;;;;3.03;2.70;;;2.30;99.90;;;;;;5071030;28;20024;-74
2021/01/28 03:00:21;;;;;;;2.78;2.10;;;2.30;99.90;;;;;;5071021;28;20059;-74
2021/01/28 03:02:49;;;;;;;4.90;2.63;;;2.40;99.90;;;;;;5071027;28;20024;-74
2021/01/28 03:05:15;;;;;;;2.40;2.20;;;2.50;99.90;;;;;;5052847;28;20044;-74
2021/01/28 03:07:41;;;;;;;2.40;2.20;;;2.50;99.90;;;;;;5070948;28;20028;-74
2021/01/28 03:10:07;;;;;;;5.45;2.35;;;2.50;99.90;;;;;;5070926;28;20430;-74
2021/01/28 03:12:33;;;;;;;2.05;1.90;;;2.50;99.90;;;;;;5070806;28;20055;-74
2021/01/28 03:14:59;;;;;;;2.25;2.05;;;2.50;99.90;;;;;;5052910;28;20468;-74
2021/01/28 03:17:25;;;;;;;2.00;1.80;;;2.40;99.90;;;;;;5052936;28;20111;-74
2021/01/28 03:19:50;;;;;;;2.85;2.65;;;2.40;99.90;;;;;;5052944;28;20412;-74
2021/01/28 03:22:16;;;;;;;3.95;2.08;;;2.20;99.90;;;;;;5070855;28;20092;-74
2021/01/28 03:24:42;;;;;;;2.80;2.60;;;2.30;99.90;;;;;;5070561;28;20024;-74
2021/01/28 03:27:08;;;;;;;2.05;1.85;;;2.20;99.90;;;;;;5070488;28;20086;-74
2021/01/28 03:29:33;;;;;;;2.40;2.10;;;2.30;99.90;;;;;;5070706;28;20027;-74
2021/01/28 03:31:59;;;;;;;4.07;2.45;;;2.40;99.90;;;;;;5070875;28;20479;-74
2021/01/28 03:34:25;;;;;;;2.63;2.42;;;2.30;99.90;;;;;;5070517;28;20035;-74
2021/01/28 03:36:51;;;;;;;2.38;2.17;;;2.30;99.90;;;;;;5052882;28;20116;-74
2021/01/28 03:39:16;;;;;;;3.00;2.70;;;2.30;99.90;;;;;;5070970;28;20063;-74
2021/01/28 03:41:42;;;;;;;2.45;2.25;;;2.30;99.90;;;;;;5070766;28;20052;-74
2021/01/28 03:44:08;;;;;;;3.03;2.42;;;2.20;99.90;;;;;;5070576;28;20056;-74
2021/01/28 03:46:34;;;;;;;3.38;2.70;;;2.20;99.90;;;;;;5052936;28;20036;-74
2021/01/28 03:48:59;;;;;;;2.70;2.50;;;2.10;99.90;;;;;;5052544;28;20511;-74
2021/01/28 03:51:25;;;;;;;3.05;2.63;;;2.10;99.90;;;;;;5070708;28;20060;-74
2021/01/28 03:53:51;;;;;;;3.33;2.58;;;2.00;99.90;;;;;;5070443;28;20024;-74
2021/01/28 03:56:16;;;;;;;5.45;2.67;;;2.00;99.90;;;;;;5070330;28;20133;-74
2021/01/28 03:58:42;;;;;;;3.35;3.05;;;2.10;99.90;;;;;;5070437;28;20021;-73
2021/01/28 04:01:09;;;;;;;4.07;3.03;;;2.20;99.90;;;;;;5052479;28;20071;-74
2021/01/28 04:03:35;;;;;;;7.45;3.50;;;2.30;99.90;;;;;;5070174;28;20028;-74
2021/01/28 04:06:00;;;;;;;4.45;3.50;;;2.50;99.90;;;;;;5073631;28;20426;-74
2021/01/28 04:08:26;;;;;;;5.82;3.70;;;2.60;99.90;;;;;;5056416;28;20040;-74
2021/01/28 04:10:52;;;;;;;3.65;3.28;;;2.60;99.90;;;;;;5039696;28;20120;-74
2021/01/28 04:13:18;;;;;;;7.47;3.55;;;2.70;99.90;;;;;;5074043;28;20059;-74
2021/01/28 04:15:43;;;;;;;9.77;3.70;;;2.60;99.90;;;;;;5074019;28;20040;-74
2021/01/28 04:18:09;;;;;;;5.68;3.85;;;2.70;99.90;;;;;;5074123;28;20024;-74
2021/01/28 04:20:36;;;;;;;6.20;3.95;;;2.80;99.90;;;;;;5073790;28;20099;-74
2021/01/28 04:23:02;;;;;;;3.25;2.88;;;2.80;99.90;;;;;;5056171;28;20082;-74
2021/01/28 04:25:28;;;;;;;4.72;3.03;;;2.80;99.90;;;;;;5073642;28;20030;-74
2021/01/28 04:27:55;;;;;;;4.53;3.03;;;2.60;99.90;;;;;;5073784;28;20395;-74
2021/01/28 04:30:30;;;;;;;3.42;3.13;;;2.60;99.90;;;;;;5073766;28;20037;-74
2021/01/28 04:32:56;;;;;;;4.60;2.80;;;2.50;99.90;;;;;;5073766;28;20089;-74
2021/01/28 04:35:22;;;;;;;3.15;2.85;;;2.40;99.90;;;;;;5073670;28;20107;-74
2021/01/28 04:37:49;;;;;;;3.58;3.22;;;2.40;99.90;;;;;;5073798;28;20528;-73
2021/01/28 04:40:27;;;;;;;3.20;2.80;;;2.40;99.90;;;;;;5073435;28;20056;-74
2021/01/28 04:42:53;;;;;;;3.85;3.30;;;2.40;99.90;;;;;;5073634;28;20025;-74
2021/01/28 04:45:21;;;;;;;3.75;3.08;;;2.40;99.90;;;;;;5055632;28;20479;-74
2021/01/28 04:47:57;;;;;;;3.45;3.00;;;2.40;99.90;;;;;;5073632;28;20111;-73
2021/01/28 04:50:31;;;;;;;4.25;3.20;;;2.30;99.90;;;;;;5073399;28;20029;-74
2021/01/28 04:53:02;;;;;;;5.63;2.97;;;2.30;99.90;;;;;;5073529;28;20051;-74
2021/01/28 04:55:48;;;;;;;3.40;3.10;;;2.30;99.90;;;;;;5073300;28;20386;-74
2021/01/28 04:58:14;;;;;;;6.47;3.58;;;2.20;99.90;;;;;;5073531;28;20376;-74
2021/01/28 05:00:40;;;;;;;5.82;3.30;;;2.30;99.90;;;;;;5073231;28;20520;-74
2021/01/28 05:03:38;;;;;;;4.00;3.40;;;2.20;99.90;;;;;;5055442;28;20059;-74
2021/01/28 05:06:05;;;;;;;14.95;3.50;;;2.20;99.90;;;;;;5073138;28;20035;-74
2021/01/28 05:08:31;;;;;;;3.30;2.85;;;2.30;99.90;;;;;;5073189;28;20082;-74
2021/01/28 05:10:59;;;;;;;5.50;3.47;;;2.20;99.90;;;;;;5073077;28;20525;-74
2021/01/28 05:13:33;;;;;;;5.85;2.97;;;2.30;99.90;;;;;;5073096;28;20025;-74
2021/01/28 05:16:17;;;;;;;3.80;3.33;;;2.30;99.90;;;;;;5071957;28;20460;-74
2021/01/28 05:18:43;;;;;;;3.63;3.13;;;2.20;99.90;;;;;;5073116;28;20027;-74
2021/01/28 05:21:17;;;;;;;5.88;2.92;;;2.30;99.90;;;;;;5073085;28;20099;-74
2021/01/28 05:23:43;;;;;;;3.55;2.90;;;2.30;99.90;;;;;;5072998;28;20056;-74
2021/01/28 05:26:38;;;;;;;5.40;2.63;;;2.40;99.90;;;;;;5072846;28;20059;-74
2021/01/28 05:29:22;;;;;;;6.65;2.97;;;2.40;99.90;;;;;;5073394;28;20025;-73
2021/01/28 05:31:50;;;;;;;3.00;2.70;;;2.40;99.90;;;;;;5073204;28;20438;-73
2021/01/28 05:34:20;;;;;;;2.88;2.53;;;2.40;99.90;;;;;;5072566;28;20021;-73
2021/01/28 05:36:57;;;;;;;3.17;2.70;;;2.40;99.90;;;;;;5072665;28;20099;-73
2021/01/28 05:39:36;;;;;;;9.10;2.30;;;2.40;99.90;;;;;;5072550;28;20017;-72
2021/01/28 05:42:24;;;;;;;6.13;2.50;;;2.50;99.90;;;;;;5072560;28;20027;-73
2021/01/28 05:44:50;;;;;;;3.08;2.17;;;2.60;99.90;;;;;;5072293;28;20056;-72
2021/01/28 05:47:18;;;;;;;4.00;2.00;;;2.60;99.90;;;;;;5072356;28;20020;-73
2021/01/28 05:49:45;;;;;;;7.22;2.17;;;2.60;99.90;;;;;;5072381;28;20028;-72
2021/01/28 05:52:29;;;;;;;2.45;2.17;;;2.60;99.90;;;;;;5072346;28;20078;-73
2021/01/28 05:55:07;;;;;;;4.15;2.45;;;2.60;99.90;;;;;;5072101;28;20033;-73
2021/01/28 05:58:02;;;;;;;12.82;2.50;;;2.70;99.90;;;;;;5072222;28;20062;-74
2021/01/28 06:00:53;;;;;;;9.55;3.47;;;2.80;99.90;;;;;;5072118;28;20087;-74
2021/01/28 06:03:48;;;;;;;11.23;2.80;;;2.90;99.90;;;;;;5072034;28;20099;-74
2021/01/28 06:06:38;;;;;;;9.98;3.33;;;3.00;99.90;;;;;;5071960;28;20040;-74
2021/01/28 06:09:28;;;;;;;17.92;4.40;;;3.10;99.90;;;;;;5071985;28;20060;-74
2021/01/28 06:12:09;;;;;;;7.45;2.75;;;3.20;99.90;;;;;;5071804;28;20572;-74
2021/01/28 06:14:58;;;;;;;8.85;3.72;;;3.10;99.90;;;;;;5071688;28;20361;-74
2021/01/28 06:17:39;;;;;;;3.05;1.77;;;3.00;99.90;;;;;;5071745;28;20020;-74
2021/01/28 06:20:23;;;;;;;19.83;2.30;;;3.10;99.90;;;;;;5053881;28;20020;-74
2021/01/28 06:22:52;;;;;;;11.40;2.78;;;3.10;99.90;;;;;;5071762;28;20491;-73
2021/01/28 06:25:30;;;;;;;16.42;2.78;;;3.10;99.90;;;;;;5071284;28;20029;-74
2021/01/28 06:28:24;;;;;;;24.25;4.53;;;3.10;99.90;;;;;;5067084;28;20024;-74
2021/01/28 06:31:19;;;;;;;26.25;7.57;;;3.20;99.90;;;;;;5055632;28;20025;-74
2021/01/28 06:33:56;;;;;;;20.58;6.38;;;3.30;99.90;;;;;;5071475;28;20082;-74
2021/01/28 06:36:56;;;;;;;16.90;5.45;;;3.30;99.90;;;;;;5067831;28;20020;-74
2021/01/28 06:39:30;;;;;;;13.65;3.42;;;3.20;99.90;;;;;;5086724;28;20081;-74
2021/01/28 06:42:20;;;;;;;5.72;2.00;;;3.30;99.90;;;;;;5091449;28;20115;-73
2021/01/28 06:44:54;;;;;;;10.35;3.08;;;3.10;99.90;;;;;;5064440;28;20033;-74
2021/01/28 06:47:48;;;;;;;13.60;2.90;;;3.00;99.90;;;;;;5049954;28;20047;-74
2021/01/28 06:50:20;;;;;;;4.30;3.42;;;3.00;99.90;;;;;;5048601;28;20739;-74
2021/01/28 06:53:07;;;;;;;9.40;2.60;;;3.20;99.90;;;;;;5051213;28;20029;-73
2021/01/28 06:55:39;;;;;;;8.90;2.78;;;3.30;99.90;;;;;;5049569;28;20032;-73
2021/01/28 06:58:47;;;;;;;5.38;2.10;;;3.20;99.90;;;;;;5051231;28;20464;-74
2021/01/28 07:03:47;;;;;;;9.35;5.15;;;3.00;99.90;;;;;;5095301;22;20077;-74
2021/01/28 07:06:19;;;;;;;6.65;3.85;;;2.80;99.90;;;;;;4992053;28;20022;-74
2021/01/28 07:08:55;;;;;;;;;;;2.60;99.90;;;;;;5010450;28;20033;-74
2021/01/28 07:11:37;;;;;;;6.68;2.95;;;2.60;99.90;;;;;;5008844;28;19905;-74
2021/01/28 07:14:06;;;;;;;7.03;3.00;;;2.50;99.90;;;;;;4976666;28;20030;-73
2021/01/28 07:16:41;;;;;;;5.22;3.30;;;2.50;99.90;;;;;;4992318;28;20018;-74
2021/01/28 07:19:33;;;;;;;8.10;2.45;;;2.40;99.90;;;;;;5017525;28;20018;-73
2021/01/28 07:22:27;;;;;;;8.13;2.75;;;2.50;99.90;;;;;;5030455;28;20021;-74
2021/01/28 07:24:54;;;;;;;10.35;2.80;;;2.60;99.90;;;;;;5030192;28;20030;-74
2021/01/28 07:27:42;;;;;;;8.10;2.17;;;2.70;99.90;;;;;;5030428;28;20048;-74
2021/01/28 07:30:28;;;;;;;4.35;2.47;;;2.70;99.90;;;;;;5020291;28;20017;-75
2021/01/28 07:32:56;;;;;;;4.82;2.00;;;2.70;99.90;;;;;;5026521;28;20035;-75
2021/01/28 07:35:24;;;;;;;13.40;2.70;;;2.80;99.90;;;;;;5047712;28;20033;-75
2021/01/28 07:37:52;;;;;;;7.57;1.80;;;2.90;99.90;;;;;;5040541;28;20025;-75
2021/01/28 07:40:55;;;;;;;8.73;2.10;;;2.90;99.90;;;;;;5046150;28;20083;-74
2021/01/28 07:43:29;;;;;;;5.93;1.77;;;3.00;99.90;;;;;;5019545;28;20035;-74
2021/01/28 07:46:26;;;;;;;2.70;1.92;;;3.00;99.90;;;;;;5019425;28;20035;-74
2021/01/28 07:49:10;;;;;;;8.85;2.33;;;2.90;99.90;;;;;;4998781;28;20037;-74
2021/01/28 07:51:37;;;;;;;3.10;2.22;;;2.90;99.90;;;;;;5036526;28;20029;-74
2021/01/28 07:54:05;;;;;;;9.57;2.80;;;2.80;99.90;;;;;;5015531;28;20072;-74
2021/01/28 07:56:40;;;;;;;5.57;2.83;;;2.80;99.90;;;;;;5035289;28;20044;-73
2021/01/28 07:59:33;;;;;;;5.80;3.03;;;2.70;99.90;;;;;;5031487;28;20056;-75
2021/01/28 08:02:26;;;;;;;5.10;2.47;;;2.80;99.90;;;;;;4979937;28;20378;-74
2021/01/28 08:05:08;;;;;;;8.15;4.25;;;2.70;99.90;;;;;;5017710;28;20393;-75
2021/01/28 08:07:38;;;;;;;;;;;2.90;99.90;;;;;;5018783;28;20358;-75
2021/01/28 08:10:21;;;;;;;5.82;3.90;;;3.00;99.90;;;;;;5035175;28;20275;-75
2021/01/28 08:13:18;;;;;;;9.88;4.00;;;3.10;99.90;;;;;;5036017;28;20029;-74
2021/01/28 08:15:59;;;;;;;7.40;5.00;;;3.00;99.90;;;;;;5017729;28;20021;-74
2021/01/28 08:18:29;;;;;;;13.10;4.70;;;3.10;99.90;;;;;;5018351;28;20397;-73
2021/01/28 08:21:07;;;;;;;10.25;4.10;;;3.20;99.90;;;;;;5035548;28;20508;-74
2021/01/28 08:23:34;;;;;;;10.68;5.05;;;3.30;99.90;;;;;;5036462;28;20041;-73
2021/01/28 08:26:04;;;;;;;8.77;4.55;;;3.10;99.90;;;;;;5035463;28;20083;-74
2021/01/28 08:28:33;;;;;;;9.45;5.07;;;3.10;99.90;;;;;;5018735;28;20087;-74
2021/01/28 08:31:21;;;;;;;7.65;3.45;;;3.10;99.90;;;;;;5018325;28;20489;-74
2021/01/28 08:34:07;;;;;;;7.18;4.07;;;3.00;99.90;;;;;;5034816;28;20068;-74
2021/01/28 08:36:59;;;;;;;459.63;207.60;;;3.00;99.90;;;;;;5018253;28;20030;-74
2021/01/28 08:39:27;;;;;;;7.00;4.30;;;3.10;99.90;;;;;;5017685;28;20025;-73
2021/01/28 08:42:07;;;;;;;6.78;4.18;;;3.00;99.90;;;;;;5035783;28;20049;-75
2021/01/28 08:44:34;;;;;;;8.77;4.82;;;3.00;99.90;;;;;;5017381;28;20293;-74
2021/01/28 08:47:19;;;;;;;6.32;4.45;;;3.00;99.90;;;;;;5017720;28;20029;-74
2021/01/28 08:50:00;;;;;;;8.63;5.07;;;2.90;99.90;;;;;;5017245;28;20124;-74
2021/01/28 08:52:26;;;;;;;3.88;2.72;;;2.90;99.90;;;;;;5013386;28;20036;-74
2021/01/28 08:54:52;;;;;;;5.78;2.80;;;3.00;99.90;;;;;;5032362;28;20480;-74
2021/01/28 08:57:21;;;;;;;6.30;2.30;;;2.90;99.90;;;;;;5014562;28;20025;-74
2021/01/28 09:00:01;;;;;;;9.23;3.08;;;2.90;99.90;;;;;;5014309;28;20032;-74
2021/01/28 09:02:32;;;;;;;3.55;2.38;;;2.90;99.90;;;;;;5014129;28;20033;-74
2021/01/28 09:05:22;;;;;;;2.70;1.88;;;3.00;99.90;;;;;;5032351;28;20033;-73
2021/01/28 09:07:58;;;;;;;3.47;2.15;;;3.00;99.90;;;;;;5032662;28;20079;-73
2021/01/28 09:10:27;;;;;;;2.78;2.30;;;3.10;99.90;;;;;;5032334;28;20087;-74
2021/01/28 09:13:09;;;;;;;10.85;2.38;;;3.10;99.90;;;;;;5031659;28;20053;-74
2021/01/28 09:15:35;;;;;;;3.55;2.38;;;3.10;99.90;;;;;;5014416;28;20484;-75
2021/01/28 09:18:17;;;;;;;3.70;2.67;;;3.00;99.90;;;;;;5013854;28;20025;-75
2021/01/28 09:20:43;;;;;;;11.88;4.00;;;3.10;99.90;;;;;;5031340;28;20025;-74
2021/01/28 09:23:17;;;;;;;5.85;2.88;;;3.10;99.90;;;;;;5013790;28;20136;-74
2021/01/28 09:25:46;;;;;;;4.38;2.53;;;3.00;99.90;;;;;;5031923;28;20029;-74
2021/01/28 09:28:23;;;;;;;4.30;2.72;;;3.10;99.90;;;;;;5013910;28;20033;-75
2021/01/28 09:30:53;;;;;;;4.70;2.53;;;3.20;99.90;;;;;;5032314;28;20115;-75
2021/01/28 09:33:37;;;;;;;5.53;3.20;;;3.20;99.90;;;;;;5032310;28;20013;-74
2021/01/28 09:36:29;;;;;;;4.75;3.10;;;3.20;99.90;;;;;;5014697;28;20029;-75
2021/01/28 09:39:06;;;;;;;3.95;2.63;;;3.30;99.90;;;;;;5014595;28;20025;-74
2021/01/28 09:41:45;;;;;;;6.60;3.78;;;3.30;99.90;;;;;;5031995;28;20033;-75
2021/01/28 09:44:30;;;;;;;5.68;3.47;;;3.40;99.90;;;;;;5028010;28;20516;-75
2021/01/28 09:47:18;;;;;;;13.95;2.95;;;3.40;99.90;;;;;;5032159;28;20030;-75
2021/01/28 09:49:52;;;;;;;7.60;3.55;;;3.40;99.90;;;;;;5030203;28;20033;-75
2021/01/28 09:52:30;;;;;;;5.63;3.25;;;3.60;99.90;;;;;;5012561;28;20091;-75
2021/01/28 09:55:03;;;;;;;5.40;3.67;;;3.50;99.90;;;;;;5013193;28;20025;-75
2021/01/28 09:57:30;;;;;;;3.65;2.78;;;3.70;99.90;;;;;;5030786;28;20068;-72
2021/01/28 09:59:57;;;;;;;4.43;3.13;;;3.80;99.90;;;;;;5013477;28;20017;-74
2021/01/28 10:02:41;;;;;;;7.00;3.03;;;3.70;99.90;;;;;;5030303;28;20025;-75
2021/01/28 10:05:08;;;;;;;7.75;3.88;;;3.70;99.90;;;;;;5013026;28;20516;-75
2021/01/28 10:07:34;;;;;;;6.05;4.15;;;3.70;99.90;;;;;;5012758;28;20033;-75
2021/01/28 10:10:02;;;;;;;7.15;4.85;;;3.40;99.90;;;;;;5030861;28;20109;-75
2021/01/28 10:12:28;;;;;;;9.57;4.25;;;3.30;99.90;;;;;;5030804;28;20028;-75
2021/01/28 10:14:55;;;;;;;4.40;3.35;;;3.30;99.90;;;;;;5030159;28;20053;-75
2021/01/28 10:17:21;;;;;;;7.30;4.55;;;3.40;99.90;;;;;;5030943;28;20457;-75
2021/01/28 10:19:47;;;;;;;9.65;5.72;;;3.30;99.90;;;;;;5030585;28;20424;-75
2021/01/28 10:22:15;;;;;;;5.38;3.05;;;3.40;99.90;;;;;;5012949;28;20022;-74
2021/01/28 10:24:41;;;;;;;5.30;3.78;;;3.30;99.90;;;;;;5030450;28;20324;-75
2021/01/28 10:27:08;;;;;;;6.15;4.38;;;3.10;99.90;;;;;;5012637;28;20037;-75
2021/01/28 10:29:35;;;;;;;10.48;3.83;;;3.10;99.90;;;;;;5030516;28;20029;-75
2021/01/28 10:32:01;;;;;;;9.27;4.10;;;3.10;99.90;;;;;;5029635;28;20481;-74
2021/01/28 10:34:26;;;;;;;10.82;4.18;;;3.00;99.90;;;;;;5012269;28;20084;-75
2021/01/28 10:36:52;;;;;;;5.53;3.13;;;3.10;99.90;;;;;;5028809;28;20030;-75
2021/01/28 10:39:18;;;;;;;8.05;2.85;;;3.20;99.90;;;;;;5030481;28;20059;-75
2021/01/28 10:41:48;;;;;;;3.15;2.10;;;3.30;99.90;;;;;;5012204;28;20520;-75
2021/01/28 10:44:14;;;;;;;3.28;2.10;;;3.40;99.90;;;;;;5012422;28;20040;-75
2021/01/28 10:46:41;;;;;;;3.30;2.05;;;3.50;99.90;;;;;;5030675;28;20025;-75
2021/01/28 10:49:06;;;;;;;11.18;2.72;;;3.40;99.90;;;;;;5030173;28;20025;-75
2021/01/28 10:51:32;;;;;;;4.10;2.30;;;3.50;99.90;;;;;;5030485;28;20033;-75
2021/01/28 10:54:02;;;;;;;3.63;1.70;;;3.60;99.90;;;;;;5011164;28;20025;-75
2021/01/28 10:56:28;;;;;;;2.10;1.63;;;3.60;99.90;;;;;;5012755;28;20425;-75
2021/01/28 10:58:54;;;;;;;3.95;1.92;;;3.70;99.90;;;;;;5029789;28;20128;-75
2021/01/28 11:01:20;;;;;;;3.08;2.17;;;3.70;99.90;;;;;;5030212;28;20025;-75
2021/01/28 11:03:46;;;;;;;5.90;2.45;;;3.60;99.90;;;;;;4994886;28;20052;-75
2021/01/28 11:06:12;;;;;;;4.32;2.08;;;3.60;99.90;;;;;;5029857;28;20029;-75
2021/01/28 11:08:38;;;;;;;3.70;2.25;;;3.40;99.90;;;;;;5012262;28;20032;-75
2021/01/28 11:11:04;;;;;;;3.47;2.40;;;3.40;99.90;;;;;;5029590;28;20342;-75
2021/01/28 11:13:30;;;;;;;4.25;2.90;;;3.30;99.90;;;;;;5025259;28;20060;-74
2021/01/28 11:15:56;;;;;;;5.28;3.10;;;3.30;99.90;;;;;;5029605;28;20021;-75
2021/01/28 11:18:22;;;;;;;4.20;3.40;;;3.40;99.90;;;;;;5012118;28;20072;-75
2021/01/28 11:20:47;;;;;;;5.00;3.85;;;3.40;99.90;;;;;;5029616;28;20026;-76
2021/01/28 11:23:13;;;;;;;6.35;3.42;;;3.60;99.90;;;;;;5029616;28;20444;-75
2021/01/28 11:25:39;;;;;;;5.38;2.58;;;3.70;99.90;;;;;;5012064;28;20025;-75
2021/01/28 11:28:05;;;;;;;7.53;3.42;;;3.50;99.90;;;;;;4994694;28;20473;-75
2021/01/28 11:30:33;;;;;;;5.82;2.67;;;3.50;99.90;;;;;;5012330;28;20037;-75
2021/01/28 11:33:00;;;;;;;4.32;2.60;;;3.40;99.90;;;;;;5029174;28;20464;-74
2021/01/28 11:35:31;;;;;;;4.10;2.85;;;3.40;99.90;;;;;;5011871;28;20436;-75
2021/01/28 11:37:58;;;;;;;5.10;2.78;;;3.40;99.90;;;;;;5011461;28;20577;-75
2021/01/28 11:40:26;;;;;;;6.80;3.50;;;3.40;99.90;;;;;;5011911;28;20037;-75
2021/01/28 11:42:53;;;;;;;6.53;3.10;;;3.30;99.90;;;;;;5029583;28;20017;-76
2021/01/28 11:45:21;;;;;;;10.40;3.20;;;3.40;99.90;;;;;;5011682;28;20032;-75
2021/01/28 11:47:47;;;;;;;6.07;3.60;;;3.30;99.90;;;;;;4995377;28;20216;-75
2021/01/28 11:50:13;;;;;;;3.65;2.35;;;3.40;99.90;;;;;;5029555;28;20552;-75
2021/01/28 11:52:39;;;;;;;2.63;1.38;;;3.30;99.90;;;;;;5030544;28;20057;-74
2021/01/28 11:55:08;;;;;;;3.67;1.23;;;3.40;99.90;;;;;;5012053;28;20057;-75
2021/01/28 11:57:33;;;;;;;0.68;0.68;;;3.40;99.90;;;;;;5012534;28;20037;-75
2021/01/28 11:59:59;;;;;;;2.60;1.52;;;3.40;99.90;;;;;;5012231;28;20033;-75
2021/01/28 12:02:25;;;;;;;1.83;1.30;;;3.40;99.90;;;;;;5011367;28;20037;-75
2021/01/28 12:04:51;;;;;;;1.63;0.90;;;3.50;99.90;;;;;;5029263;28;20104;-76
2021/01/28 12:07:17;;;;;;;2.38;1.20;;;3.50;99.90;;;;;;5011755;28;20090;-74
2021/01/28 12:09:43;;;;;;;2.33;1.80;;;3.60;99.90;;;;;;5011637;28;20021;-75
2021/01/28 12:12:09;;;;;;;4.05;2.40;;;3.60;99.90;;;;;;5011329;28;20021;-75
2021/01/28 12:14:35;;;;;;;1.85;1.30;;;3.70;99.90;;;;;;5029494;28;20431;-75
2021/01/28 12:17:01;;;;;;;3.95;1.25;;;3.80;99.90;;;;;;4995022;28;20021;-75
2021/01/28 12:19:26;;;;;;;1.02;0.93;;;4.00;99.90;;;;;;5029370;28;20022;-75
2021/01/28 12:21:52;;;;;;;2.45;1.50;;;4.00;99.90;;;;;;5024944;28;20297;-75
2021/01/28 12:24:18;;;;;;;7.45;2.08;;;4.00;99.90;;;;;;5028846;28;20029;-75
2021/01/28 12:26:43;;;;;;;12.75;4.45;;;4.00;99.90;;;;;;5031535;28;20112;-75
2021/01/28 12:29:10;;;;;;;1.65;1.30;;;4.00;99.90;;;;;;5032724;28;20135;-75
2021/01/28 12:31:35;;;;;;;1.95;1.55;;;3.90;99.90;;;;;;5014811;28;20452;-75
2021/01/28 12:34:01;;;;;;;53.97;4.25;;;3.90;99.90;;;;;;5015381;28;20025;-75
2021/01/28 12:36:27;;;;;;;3.30;1.52;;;3.90;99.90;;;;;;5013217;28;20056;-75
2021/01/28 12:38:53;;;;;;;21.92;1.80;;;4.00;99.90;;;;;;5014907;28;20071;-75
2021/01/28 12:41:19;;;;;;;41.67;3.03;;;4.00;99.90;;;;;;5032464;28;20428;-75
2021/01/28 12:43:45;;;;;;;1.33;0.98;;;4.00;99.90;;;;;;5032744;28;20534;-74
2021/01/28 12:46:10;;;;;;;14.50;2.20;;;4.10;99.90;;;;;;5032006;28;20033;-75
2021/01/28 12:48:36;;;;;;;2.55;1.58;;;4.10;99.90;;;;;;5032530;28;20079;-74
2021/01/28 12:51:02;;;;;;;11.45;1.85;;;4.10;99.90;;;;;;5032053;28;20029;-75
2021/01/28 12:53:28;;;;;;;21.13;2.40;;;4.10;99.90;;;;;;5014617;28;20061;-75
2021/01/28 12:55:53;;;;;;;38.83;3.70;;;4.10;99.90;;;;;;5015015;28;20068;-75
2021/01/28 12:58:19;;;;;;;1.67;1.30;;;4.10;99.90;;;;;;5014482;28;20841;-75
2021/01/28 13:00:45;;;;;;;1.48;1.38;;;4.10;99.90;;;;;;5032358;28;20109;-74
2021/01/28 13:03:10;;;;;;;2.92;1.50;;;4.10;99.90;;;;;;5052269;23;20075;-78
2021/01/28 13:05:36;;;;;;;8.00;1.25;;;4.10;99.90;;;;;;5057019;28;20021;-77
2021/01/28 13:08:02;;;;;;;6.88;1.45;;;4.10;99.90;;;;;;5056492;28;20079;-77
2021/01/28 13:10:28;;;;;;;1.80;1.10;;;4.10;99.90;;;;;;5017063;28;20136;-77
2021/01/28 13:12:54;;;;;;;3.20;1.30;;;4.20;99.90;;;;;;5036026;28;20029;-77
2021/01/28 13:15:21;;;;;;;5.55;1.20;;;4.20;99.90;;;;;;5018478;28;20119;-78
2021/01/28 13:17:48;;;;;;;5.85;1.48;;;4.20;99.90;;;;;;5050592;28;20066;-77
2021/01/28 13:20:15;;;;;;;9.00;1.50;;;4.20;99.90;;;;;;5040005;28;20080;-77
2021/01/28 13:22:42;;;;;;;8.70;2.17;;;4.20;99.90;;;;;;5014954;28;20365;-78